메인 페이지
METAR-TAF:

METAR-TAF

공항 :

라과디아 공항

뉴욕 / 라가디아, 뉴욕, 미국

위도: 40-46-45N, 경도: 073-52-48W, 고도: 6m

현재 날씨관측

예보는 38분 전, 21:51시(UTC)에 발표되었습니다.
서북서25kt, 순간 최대 풍속 32kt
온도 -3°C
습도 63%
기압 999 hPa
시정: 16.1km
고도 3200ft 상공 구름 많음

METAR: KLGA 202151Z 30025G32KT 10SM BKN032 M03/M09 A2950 RMK AO2 PK WND 30036/2120 PRESRR SLP988 T10281094 $

시각: 17:29 (22:29 UTC)

예보

예보는 1 시간 56분 전, 20:33시(UTC)에 발표되었습니다.
예보 대상 시간: 20일 21시부터 21일 24시까지 (UTC)
북서20kt, 순간 최대 풍속 28kt
시정: 10km
고도 1500ft 상공 구름 보통
고도 3000ft 상공 구름 많음
20일 2200시부터 (UTC)
북서20kt, 순간 최대 풍속 32kt
시정: 10km
고도 3000ft 상공 구름 보통
고도 5000ft 상공 구름 많음
21일 0000시부터 (UTC)
북서24kt, 순간 최대 풍속 34kt
시정: 10km
고도 5000ft 상공 구름 보통
21일 1500시부터 (UTC)
서북서23kt, 순간 최대 풍속 36kt
시정: 10km
고도 10000ft 상공 구름 많음

TAF: KLGA 202033Z 2021/2124 31020G28KT P6SM SCT015 BKN030 FM202200 31020G32KT P6SM SCT030 BKN050 FM210000 31024G34KT P6SM SCT050 FM211500 30023G36KT P6SM BKN100

4,000개 이상의 공항 관측 자료 및 예보 (METAR 및 TAF 보고).

지도상에서 검색 가능한 기상관측소가 노란 점과 빨간 점으로 표시되어 있습니다.

기상관측소 명을 보려면 표시 위로 마우스를 이동하세요.

날씨 관측과 예보를 보려면 클릭하세요.

지도 변경 : 확대하려면 엑스 표시가 있는 녹색 버튼, 축소하려면 빼기 표시가 있는 녹색 버튼, 다음 페이지의 지도를 보려면 녹색 화살표를 클릭하세요.


METAR-TAF: